1863 NOT_NAMED (1863011S11055)


IBTrACS version v04r00. Visit IBTrACS website for data access.
Please direct all questions to the IBTrACS Q and A forum

Storm track - Intensity - Wind Radii - Intensity Data - Source Data - All data

Summary Information

Storm ID 1863011S11055
Start Jan 11 06Z
End Jan 18 06Z
ATCF IDs
Track status Best track data.

Storm track plot

Map of storm track

Intensity plots

No Intensity information for this storm


Radial wind information

No radial wind information for this storm


Position and Intensity Table

BASIN ISO_TIME_________ NATURE LAT LON
degrees north degrees east
SI 1863-01-11 06:00:00 NR -10.50 55.10
SI 09:00:00 NR -10.60 55.03
SI 12:00:00 NR -10.71 54.97
SI 15:00:00 NR -10.83 54.90
SI 18:00:00 NR -10.96 54.82
SI 21:00:00 NR -11.11 54.75
SI 1863-01-12 00:00:00 NR -11.28 54.67
SI 03:00:00 NR -11.47 54.59
SI 06:00:00 NR -11.70 54.50
SI 09:00:00 NR -11.96 54.41
SI 12:00:00 NR -12.24 54.31
SI 15:00:00 NR -12.55 54.22
SI 18:00:00 NR -12.88 54.13
SI 21:00:00 NR -13.21 54.05
SI 1863-01-13 00:00:00 NR -13.54 53.98
SI 03:00:00 NR -13.88 53.93
SI 06:00:00 NR -14.20 53.90
SI 09:00:00 NR -14.48 53.89
SI 12:00:00 NR -14.75 53.90
SI 15:00:00 NR -15.02 53.92
SI 18:00:00 NR -15.28 53.97
SI 21:00:00 NR -15.55 54.03
SI 1863-01-14 00:00:00 NR -15.83 54.10
SI 03:00:00 NR -16.11 54.19
SI 06:00:00 NR -16.40 54.30
SI 09:00:00 NR -16.71 54.37
SI 12:00:00 NR -17.03 54.46
SI 15:00:00 NR -17.36 54.56
SI 18:00:00 NR -17.70 54.68
SI 21:00:00 NR -18.05 54.83
SI 1863-01-15 00:00:00 NR -18.40 55.01
SI 03:00:00 NR -18.75 55.23
SI 06:00:00 NR -19.10 55.50
SI 09:00:00 NR -19.48 55.84
SI 12:00:00 NR -19.87 56.22
SI 15:00:00 NR -20.26 56.64
SI 18:00:00 NR -20.64 57.09
SI 21:00:00 NR -21.00 57.55
SI 1863-01-16 00:00:00 NR -21.34 58.01
SI 03:00:00 NR -21.64 58.47
SI 06:00:00 NR -21.90 58.90
SI 09:00:00 NR -22.11 59.30
SI 12:00:00 NR -22.29 59.68
SI 15:00:00 NR -22.43 60.05
SI 18:00:00 NR -22.54 60.39
SI 21:00:00 NR -22.63 60.71
SI 1863-01-17 00:00:00 NR -22.70 61.01
SI 03:00:00 NR -22.76 61.27
SI 06:00:00 NR -22.80 61.50
SI 09:00:00 NR -22.84 61.69
SI 12:00:00 NR -22.87 61.86
SI 15:00:00 NR -22.90 61.99
SI 18:00:00 NR -22.92 62.10
SI 21:00:00 NR -22.94 62.19
SI 1863-01-18 00:00:00 NR -22.96 62.27
SI 03:00:00 NR -22.98 62.34
SI 06:00:00 NR -23.00 62.40

Source Information

Agency Information
USA
TOKYO
CMA
HKO
NEWDELHI
REUNION WMO-Best-Tracks.txt:Line=485:xxxx863071
BOM
NADI
WELLINGTON
DS824
TD9636
TD9635
NEUMANN
MLC

All available IBTrACS Data

SEASON BASIN SUBBASIN ISO_TIME_________ NATURE LAT LON WMO AGENCY DIST2LAND LANDFALL IFLAG USA SSHS REUNION LAT REUNION LON REUNION TYPE REUNION TNUM STORM SPEED STORM DIR
Year degrees north degrees east km km 1 degrees north degrees east 1 kts degrees
1863 SI MM 1863-01-11 06:00:00 NR -10.50 55.10 reunion 631 617 _____O________ -1 -10.50 55.10 99 9.90 2 213
1863 SI MM 09:00:00 NR -10.60 55.03 617 612 _____P________ -1 -10.60 55.03 99 3 211
1863 SI MM 12:00:00 NR -10.71 54.97 612 597 _____P________ -1 -10.71 54.97 99 3 211
1863 SI MM 15:00:00 NR -10.83 54.90 597 578 _____P________ -1 -10.83 54.90 99 3 208
1863 SI MM 18:00:00 NR -10.96 54.82 578 574 _____P________ -1 -10.96 54.82 99 3 208
1863 SI MM 21:00:00 NR -11.11 54.75 563 555 _____P________ -1 -11.11 54.75 99 4 205
1863 SI MM 1863-01-12 00:00:00 NR -11.28 54.67 555 537 _____P________ -1 -11.28 54.67 99 4 204
1863 SI MM 03:00:00 NR -11.47 54.59 537 520 _____P________ -1 -11.47 54.59 99 5 202
1863 SI MM 06:00:00 NR -11.70 54.50 reunion 520 504 _____O________ -1 -11.70 54.50 99 9.90 5 200
1863 SI MM 09:00:00 NR -11.96 54.41 501 485 _____P________ -1 -11.96 54.41 99 6 199
1863 SI MM 12:00:00 NR -12.24 54.31 485 466 _____P________ -1 -12.24 54.31 99 6 197
1863 SI MM 15:00:00 NR -12.55 54.22 463 444 _____P________ -1 -12.55 54.22 99 7 196
1863 SI MM 18:00:00 NR -12.88 54.13 444 437 _____P________ -1 -12.88 54.13 99 7 194
1863 SI MM 21:00:00 NR -13.21 54.05 427 422 _____P________ -1 -13.21 54.05 99 7 192
1863 SI MM 1863-01-13 00:00:00 NR -13.54 53.98 422 393 _____P________ -1 -13.54 53.98 99 7 190
1863 SI MM 03:00:00 NR -13.88 53.93 393 382 _____P________ -1 -13.88 53.93 99 7 187
1863 SI MM 06:00:00 NR -14.20 53.90 reunion 382 373 _____O________ -1 -14.20 53.90 99 9.90 6 184
1863 SI MM 09:00:00 NR -14.48 53.89 373 369 _____P________ -1 -14.48 53.89 99 6 180
1863 SI MM 12:00:00 NR -14.75 53.90 368 365 _____P________ -1 -14.75 53.90 99 5 175
1863 SI MM 15:00:00 NR -15.02 53.92 365 364 _____P________ -1 -15.02 53.92 99 5 173
1863 SI MM 18:00:00 NR -15.28 53.97 375 375 _____P________ -1 -15.28 53.97 99 5 170
1863 SI MM 21:00:00 NR -15.55 54.03 375 375 _____P________ -1 -15.55 54.03 99 6 166
1863 SI MM 1863-01-14 00:00:00 NR -15.83 54.10 388 388 _____P________ -1 -15.83 54.10 99 6 164
1863 SI MM 03:00:00 NR -16.11 54.19 403 403 _____P________ -1 -16.11 54.19 99 6 162
1863 SI MM 06:00:00 NR -16.40 54.30 reunion 421 421 _____O________ -1 -16.40 54.30 99 9.90 6 164
1863 SI MM 09:00:00 NR -16.71 54.37 441 441 _____P________ -1 -16.71 54.37 99 7 167
1863 SI MM 12:00:00 NR -17.03 54.46 455 422 _____P________ -1 -17.03 54.46 99 7 165
1863 SI MM 15:00:00 NR -17.36 54.56 409 374 _____P________ -1 -17.36 54.56 99 7 162
1863 SI MM 18:00:00 NR -17.70 54.68 374 339 _____P________ -1 -17.70 54.68 99 7 159
1863 SI MM 21:00:00 NR -18.05 54.83 339 292 _____P________ -1 -18.05 54.83 99 8 155
1863 SI MM 1863-01-15 00:00:00 NR -18.40 55.01 292 257 _____P________ -1 -18.40 55.01 99 8 151
1863 SI MM 03:00:00 NR -18.75 55.23 257 212 _____P________ -1 -18.75 55.23 99 8 147
1863 SI MM 06:00:00 NR -19.10 55.50 reunion 212 168 _____O________ -1 -19.10 55.50 99 9.90 9 142
1863 SI MM 09:00:00 NR -19.48 55.84 168 132 _____P________ -1 -19.48 55.84 99 10 139
1863 SI MM 12:00:00 NR -19.87 56.22 132 80 _____P________ -1 -19.87 56.22 99 11 136
1863 SI MM 15:00:00 NR -20.26 56.64 76 23 _____P________ -1 -20.26 56.64 99 11 133
1863 SI MM 18:00:00 NR -20.64 57.09 23 23 _____P________ -1 -20.64 57.09 99 11 131
1863 SI MM 21:00:00 NR -21.00 57.55 55 55 _____P________ -1 -21.00 57.55 99 11 129
1863 SI MM 1863-01-16 00:00:00 NR -21.34 58.01 94 94 _____P________ -1 -21.34 58.01 99 11 127
1863 SI MM 03:00:00 NR -21.64 58.47 148 148 _____P________ -1 -21.64 58.47 99 10 124
1863 SI MM 06:00:00 NR -21.90 58.90 reunion 199 199 _____O________ -1 -21.90 58.90 99 9.90 9 122
1863 SI MM 09:00:00 NR -22.11 59.30 243 243 _____P________ -1 -22.11 59.30 99 8 118
1863 SI MM 12:00:00 NR -22.29 59.68 288 288 _____P________ -1 -22.29 59.68 99 8 115
1863 SI MM 15:00:00 NR -22.43 60.05 319 319 _____P________ -1 -22.43 60.05 99 7 111
1863 SI MM 18:00:00 NR -22.54 60.39 357 357 _____P________ -1 -22.54 60.39 99 6 108
1863 SI MM 21:00:00 NR -22.63 60.71 389 389 _____P________ -1 -22.63 60.71 99 6 106
1863 SI MM 1863-01-17 00:00:00 NR -22.70 61.01 420 420 _____P________ -1 -22.70 61.01 99 5 103
1863 SI MM 03:00:00 NR -22.76 61.27 452 452 _____P________ -1 -22.76 61.27 99 5 102
1863 SI MM 06:00:00 NR -22.80 61.50 reunion 469 469 _____O________ -1 -22.80 61.50 99 9.90 4 102
1863 SI MM 09:00:00 NR -22.84 61.69 486 486 _____P________ -1 -22.84 61.69 99 3 102
1863 SI MM 12:00:00 NR -22.87 61.86 510 510 _____P________ -1 -22.87 61.86 99 3 103
1863 SI MM 15:00:00 NR -22.90 61.99 518 518 _____P________ -1 -22.90 61.99 99 2 103
1863 SI MM 18:00:00 NR -22.92 62.10 527 527 _____P________ -1 -22.92 62.10 99 2 104
1863 SI MM 21:00:00 NR -22.94 62.19 536 536 _____P________ -1 -22.94 62.19 99 2 105
1863 SI MM 1863-01-18 00:00:00 NR -22.96 62.27 551 551 _____P________ -1 -22.96 62.27 99 1 106
1863 SI MM 03:00:00 NR -22.98 62.34 551 551 _____P________ -1 -22.98 62.34 99 1 107
1863 SI MM 06:00:00 NR -23.00 62.40 reunion 559 _____O________ -1 -23.00 62.40 99 9.90 1 108